sensor_id;sensor_type;location;lat;lon;timestamp;P1;durP1;ratioP1;P2;durP2;ratioP2
32505;SDS011;18955;51.224;8.482;2022-12-13T00:01:55;12.23;;;5.80;;
32505;SDS011;18955;51.224;8.482;2022-12-13T00:04:23;11.20;;;5.68;;
32505;SDS011;18955;51.224;8.482;2022-12-13T00:06:49;10.57;;;5.47;;
32505;SDS011;18955;51.224;8.482;2022-12-13T00:09:18;14.18;;;6.47;;
32505;SDS011;18955;51.224;8.482;2022-12-13T00:11:45;11.48;;;6.20;;
32505;SDS011;18955;51.224;8.482;2022-12-13T00:14:13;12.38;;;5.85;;
32505;SDS011;18955;51.224;8.482;2022-12-13T00:16:40;11.20;;;5.82;;
32505;SDS011;18955;51.224;8.482;2022-12-13T00:19:11;13.77;;;6.45;;
32505;SDS011;18955;51.224;8.482;2022-12-13T00:21:37;10.43;;;5.00;;
32505;SDS011;18955;51.224;8.482;2022-12-13T00:24:04;10.38;;;5.35;;
32505;SDS011;18955;51.224;8.482;2022-12-13T00:26:32;11.48;;;5.82;;
32505;SDS011;18955;51.224;8.482;2022-12-13T00:28:59;11.02;;;5.95;;
32505;SDS011;18955;51.224;8.482;2022-12-13T00:31:26;8.95;;;5.18;;
32505;SDS011;18955;51.224;8.482;2022-12-13T00:33:54;10.25;;;5.22;;
32505;SDS011;18955;51.224;8.482;2022-12-13T00:36:20;9.23;;;5.13;;
32505;SDS011;18955;51.224;8.482;2022-12-13T00:38:47;12.93;;;5.55;;
32505;SDS011;18955;51.224;8.482;2022-12-13T00:41:25;10.75;;;5.18;;
32505;SDS011;18955;51.224;8.482;2022-12-13T00:43:56;9.38;;;5.30;;
32505;SDS011;18955;51.224;8.482;2022-12-13T00:46:23;13.20;;;5.40;;
32505;SDS011;18955;51.224;8.482;2022-12-13T00:48:51;9.73;;;5.00;;
32505;SDS011;18955;51.224;8.482;2022-12-13T00:51:19;9.20;;;5.05;;
32505;SDS011;18955;51.224;8.482;2022-12-13T00:53:46;15.38;;;5.20;;
32505;SDS011;18955;51.224;8.482;2022-12-13T00:58:41;10.20;;;4.80;;
32505;SDS011;18955;51.224;8.482;2022-12-13T01:01:12;9.38;;;4.57;;
32505;SDS011;18955;51.224;8.482;2022-12-13T01:03:40;11.25;;;5.15;;
32505;SDS011;18955;51.224;8.482;2022-12-13T01:06:08;10.05;;;5.10;;
32505;SDS011;18955;51.224;8.482;2022-12-13T01:08:39;8.82;;;4.10;;
32505;SDS011;18955;51.224;8.482;2022-12-13T01:11:06;9.10;;;4.55;;
32505;SDS011;18955;51.224;8.482;2022-12-13T01:13:33;10.55;;;4.70;;
32505;SDS011;18955;51.224;8.482;2022-12-13T01:16:01;10.27;;;4.80;;
32505;SDS011;18955;51.224;8.482;2022-12-13T01:18:29;11.55;;;5.00;;
32505;SDS011;18955;51.224;8.482;2022-12-13T01:20:56;10.18;;;5.20;;
32505;SDS011;18955;51.224;8.482;2022-12-13T01:23:31;8.20;;;4.00;;
32505;SDS011;18955;51.224;8.482;2022-12-13T01:26:00;14.15;;;5.35;;
32505;SDS011;18955;51.224;8.482;2022-12-13T01:28:30;12.68;;;4.28;;
32505;SDS011;18955;51.224;8.482;2022-12-13T01:30:57;8.68;;;4.50;;
32505;SDS011;18955;51.224;8.482;2022-12-13T01:33:26;9.68;;;4.75;;
32505;SDS011;18955;51.224;8.482;2022-12-13T01:35:53;9.75;;;4.35;;
32505;SDS011;18955;51.224;8.482;2022-12-13T01:38:19;8.93;;;4.00;;
32505;SDS011;18955;51.224;8.482;2022-12-13T01:40:46;6.05;;;3.33;;
32505;SDS011;18955;51.224;8.482;2022-12-13T01:43:14;7.80;;;4.05;;
32505;SDS011;18955;51.224;8.482;2022-12-13T01:45:41;11.70;;;4.57;;
32505;SDS011;18955;51.224;8.482;2022-12-13T01:50:38;7.95;;;3.72;;
32505;SDS011;18955;51.224;8.482;2022-12-13T01:53:08;7.53;;;3.78;;
32505;SDS011;18955;51.224;8.482;2022-12-13T01:55:38;8.93;;;4.50;;
32505;SDS011;18955;51.224;8.482;2022-12-13T01:58:05;7.93;;;3.83;;
32505;SDS011;18955;51.224;8.482;2022-12-13T02:00:32;8.05;;;3.50;;
32505;SDS011;18955;51.224;8.482;2022-12-13T02:03:00;8.10;;;4.40;;
32505;SDS011;18955;51.224;8.482;2022-12-13T02:08:06;12.13;;;3.75;;
32505;SDS011;18955;51.224;8.482;2022-12-13T02:10:35;7.78;;;3.92;;
32505;SDS011;18955;51.224;8.482;2022-12-13T02:13:02;9.50;;;4.35;;
32505;SDS011;18955;51.224;8.482;2022-12-13T02:15:32;6.53;;;3.50;;
32505;SDS011;18955;51.224;8.482;2022-12-13T02:29:49;8.35;;;3.55;;
32505;SDS011;18955;51.224;8.482;2022-12-13T02:32:16;12.15;;;4.40;;
32505;SDS011;18955;51.224;8.482;2022-12-13T02:35:10;8.05;;;3.53;;
32505;SDS011;18955;51.224;8.482;2022-12-13T02:37:58;10.57;;;4.47;;
32505;SDS011;18955;51.224;8.482;2022-12-13T02:40:46;10.20;;;3.85;;
32505;SDS011;18955;51.224;8.482;2022-12-13T02:43:37;7.65;;;3.72;;
32505;SDS011;18955;51.224;8.482;2022-12-13T02:46:35;6.97;;;3.25;;
32505;SDS011;18955;51.224;8.482;2022-12-13T02:49:06;6.68;;;3.45;;
32505;SDS011;18955;51.224;8.482;2022-12-13T02:51:34;11.25;;;4.25;;
32505;SDS011;18955;51.224;8.482;2022-12-13T02:54:03;7.72;;;4.10;;
32505;SDS011;18955;51.224;8.482;2022-12-13T02:56:30;6.63;;;3.53;;
32505;SDS011;18955;51.224;8.482;2022-12-13T02:58:57;8.38;;;3.92;;
32505;SDS011;18955;51.224;8.482;2022-12-13T03:04:27;7.15;;;3.25;;
32505;SDS011;18955;51.224;8.482;2022-12-13T03:07:38;8.15;;;3.53;;
32505;SDS011;18955;51.224;8.482;2022-12-13T03:10:14;7.18;;;3.55;;
32505;SDS011;18955;51.224;8.482;2022-12-13T03:12:55;7.90;;;3.50;;
32505;SDS011;18955;51.224;8.482;2022-12-13T03:15:56;11.43;;;4.25;;
32505;SDS011;18955;51.224;8.482;2022-12-13T03:18:27;7.90;;;3.75;;
32505;SDS011;18955;51.224;8.482;2022-12-13T03:21:00;12.65;;;3.83;;
32505;SDS011;18955;51.224;8.482;2022-12-13T03:23:29;9.98;;;4.40;;
32505;SDS011;18955;51.224;8.482;2022-12-13T03:25:57;9.60;;;4.00;;
32505;SDS011;18955;51.224;8.482;2022-12-13T03:28:27;7.18;;;2.92;;
32505;SDS011;18955;51.224;8.482;2022-12-13T03:30:53;6.93;;;3.33;;
32505;SDS011;18955;51.224;8.482;2022-12-13T03:33:20;6.80;;;3.00;;
32505;SDS011;18955;51.224;8.482;2022-12-13T03:35:47;7.15;;;3.67;;
32505;SDS011;18955;51.224;8.482;2022-12-13T03:38:14;9.05;;;3.55;;
32505;SDS011;18955;51.224;8.482;2022-12-13T03:40:42;7.78;;;3.53;;
32505;SDS011;18955;51.224;8.482;2022-12-13T03:43:08;7.20;;;3.58;;
32505;SDS011;18955;51.224;8.482;2022-12-13T03:45:35;5.50;;;2.58;;
32505;SDS011;18955;51.224;8.482;2022-12-13T03:48:01;7.25;;;3.50;;
32505;SDS011;18955;51.224;8.482;2022-12-13T03:50:27;10.82;;;3.63;;
32505;SDS011;18955;51.224;8.482;2022-12-13T03:52:57;6.07;;;2.70;;
32505;SDS011;18955;51.224;8.482;2022-12-13T03:55:24;7.35;;;3.33;;
32505;SDS011;18955;51.224;8.482;2022-12-13T04:00:17;7.63;;;3.65;;
32505;SDS011;18955;51.224;8.482;2022-12-13T04:02:43;6.97;;;3.13;;
32505;SDS011;18955;51.224;8.482;2022-12-13T04:05:09;12.35;;;3.63;;
32505;SDS011;18955;51.224;8.482;2022-12-13T04:07:35;6.40;;;3.40;;
32505;SDS011;18955;51.224;8.482;2022-12-13T04:10:05;9.30;;;2.70;;
32505;SDS011;18955;51.224;8.482;2022-12-13T04:12:31;11.50;;;4.25;;
32505;SDS011;18955;51.224;8.482;2022-12-13T04:15:16;6.97;;;3.30;;
32505;SDS011;18955;51.224;8.482;2022-12-13T04:17:42;10.95;;;4.00;;
32505;SDS011;18955;51.224;8.482;2022-12-13T04:20:08;6.65;;;2.38;;
32505;SDS011;18955;51.224;8.482;2022-12-13T04:22:35;11.60;;;4.43;;
32505;SDS011;18955;51.224;8.482;2022-12-13T04:25:02;7.65;;;3.25;;
32505;SDS011;18955;51.224;8.482;2022-12-13T04:27:29;6.05;;;3.20;;
32505;SDS011;18955;51.224;8.482;2022-12-13T04:29:55;11.05;;;3.50;;
32505;SDS011;18955;51.224;8.482;2022-12-13T04:34:48;7.63;;;3.13;;
32505;SDS011;18955;51.224;8.482;2022-12-13T04:37:14;11.45;;;3.58;;
32505;SDS011;18955;51.224;8.482;2022-12-13T04:39:40;11.52;;;3.85;;
32505;SDS011;18955;51.224;8.482;2022-12-13T04:42:06;6.93;;;2.45;;
32505;SDS011;18955;51.224;8.482;2022-12-13T04:44:33;6.53;;;3.38;;
32505;SDS011;18955;51.224;8.482;2022-12-13T04:46:59;7.20;;;3.40;;
32505;SDS011;18955;51.224;8.482;2022-12-13T04:49:30;8.90;;;4.00;;
32505;SDS011;18955;51.224;8.482;2022-12-13T04:51:57;9.18;;;3.33;;
32505;SDS011;18955;51.224;8.482;2022-12-13T04:54:24;6.70;;;2.60;;
32505;SDS011;18955;51.224;8.482;2022-12-13T04:56:50;11.23;;;3.17;;
32505;SDS011;18955;51.224;8.482;2022-12-13T04:59:16;6.53;;;3.45;;
32505;SDS011;18955;51.224;8.482;2022-12-13T05:01:42;9.00;;;3.28;;
32505;SDS011;18955;51.224;8.482;2022-12-13T05:04:09;8.77;;;3.25;;
32505;SDS011;18955;51.224;8.482;2022-12-13T05:06:35;6.90;;;3.35;;
32505;SDS011;18955;51.224;8.482;2022-12-13T05:09:01;6.13;;;3.40;;
32505;SDS011;18955;51.224;8.482;2022-12-13T05:11:28;5.75;;;2.35;;
32505;SDS011;18955;51.224;8.482;2022-12-13T05:16:20;7.25;;;3.28;;
32505;SDS011;18955;51.224;8.482;2022-12-13T05:18:46;5.47;;;2.03;;
32505;SDS011;18955;51.224;8.482;2022-12-13T05:21:12;4.88;;;2.20;;
32505;SDS011;18955;51.224;8.482;2022-12-13T05:23:38;6.88;;;2.63;;
32505;SDS011;18955;51.224;8.482;2022-12-13T05:26:05;6.18;;;3.13;;
32505;SDS011;18955;51.224;8.482;2022-12-13T05:28:31;7.53;;;3.38;;
32505;SDS011;18955;51.224;8.482;2022-12-13T05:30:59;13.60;;;3.03;;
32505;SDS011;18955;51.224;8.482;2022-12-13T05:33:32;6.75;;;3.67;;
32505;SDS011;18955;51.224;8.482;2022-12-13T05:35:58;7.57;;;2.88;;
32505;SDS011;18955;51.224;8.482;2022-12-13T05:38:24;7.03;;;3.50;;
32505;SDS011;18955;51.224;8.482;2022-12-13T05:40:50;8.88;;;2.92;;
32505;SDS011;18955;51.224;8.482;2022-12-13T05:43:17;3.65;;;1.58;;
32505;SDS011;18955;51.224;8.482;2022-12-13T05:45:43;8.13;;;3.58;;
32505;SDS011;18955;51.224;8.482;2022-12-13T05:48:10;9.45;;;3.78;;
32505;SDS011;18955;51.224;8.482;2022-12-13T05:50:37;6.63;;;2.60;;
32505;SDS011;18955;51.224;8.482;2022-12-13T05:53:03;7.40;;;2.55;;
32505;SDS011;18955;51.224;8.482;2022-12-13T05:55:29;7.40;;;2.85;;
32505;SDS011;18955;51.224;8.482;2022-12-13T05:57:56;6.88;;;2.78;;
32505;SDS011;18955;51.224;8.482;2022-12-13T06:00:23;5.78;;;2.60;;
32505;SDS011;18955;51.224;8.482;2022-12-13T06:02:52;9.05;;;3.38;;
32505;SDS011;18955;51.224;8.482;2022-12-13T06:05:18;8.05;;;2.88;;
32505;SDS011;18955;51.224;8.482;2022-12-13T06:07:45;7.72;;;3.28;;
32505;SDS011;18955;51.224;8.482;2022-12-13T06:10:11;6.18;;;2.70;;
32505;SDS011;18955;51.224;8.482;2022-12-13T06:12:38;5.70;;;2.67;;
32505;SDS011;18955;51.224;8.482;2022-12-13T06:15:04;6.10;;;2.78;;
32505;SDS011;18955;51.224;8.482;2022-12-13T06:19:57;8.55;;;3.25;;
32505;SDS011;18955;51.224;8.482;2022-12-13T06:22:24;6.03;;;2.63;;
32505;SDS011;18955;51.224;8.482;2022-12-13T06:24:51;6.38;;;3.00;;
32505;SDS011;18955;51.224;8.482;2022-12-13T06:27:18;5.75;;;2.20;;
32505;SDS011;18955;51.224;8.482;2022-12-13T06:29:44;8.20;;;2.75;;
32505;SDS011;18955;51.224;8.482;2022-12-13T06:32:10;9.10;;;2.80;;
32505;SDS011;18955;51.224;8.482;2022-12-13T06:34:36;6.93;;;1.80;;
32505;SDS011;18955;51.224;8.482;2022-12-13T06:37:03;5.28;;;2.53;;
32505;SDS011;18955;51.224;8.482;2022-12-13T06:39:31;5.68;;;2.35;;
32505;SDS011;18955;51.224;8.482;2022-12-13T06:41:58;10.52;;;3.50;;
32505;SDS011;18955;51.224;8.482;2022-12-13T06:44:24;7.82;;;3.03;;
32505;SDS011;18955;51.224;8.482;2022-12-13T06:46:50;5.05;;;2.67;;
32505;SDS011;18955;51.224;8.482;2022-12-13T06:49:19;7.95;;;2.70;;
32505;SDS011;18955;51.224;8.482;2022-12-13T06:51:45;3.70;;;1.85;;
32505;SDS011;18955;51.224;8.482;2022-12-13T06:54:11;11.18;;;2.20;;
32505;SDS011;18955;51.224;8.482;2022-12-13T06:56:37;5.28;;;1.80;;
32505;SDS011;18955;51.224;8.482;2022-12-13T06:59:03;11.82;;;2.60;;
32505;SDS011;18955;51.224;8.482;2022-12-13T07:01:29;7.78;;;2.85;;
32505;SDS011;18955;51.224;8.482;2022-12-13T07:03:56;8.48;;;3.10;;
32505;SDS011;18955;51.224;8.482;2022-12-13T07:06:23;5.35;;;2.55;;
32505;SDS011;18955;51.224;8.482;2022-12-13T07:08:51;10.27;;;3.33;;
32505;SDS011;18955;51.224;8.482;2022-12-13T07:11:26;7.47;;;2.75;;
32505;SDS011;18955;51.224;8.482;2022-12-13T07:13:53;4.50;;;2.50;;
32505;SDS011;18955;51.224;8.482;2022-12-13T07:16:20;10.02;;;4.10;;
32505;SDS011;18955;51.224;8.482;2022-12-13T07:18:49;12.55;;;2.58;;
32505;SDS011;18955;51.224;8.482;2022-12-13T07:21:22;7.00;;;2.78;;
32505;SDS011;18955;51.224;8.482;2022-12-13T07:23:48;8.02;;;2.45;;
32505;SDS011;18955;51.224;8.482;2022-12-13T07:26:15;5.03;;;2.55;;
32505;SDS011;18955;51.224;8.482;2022-12-13T07:31:08;6.63;;;2.30;;
32505;SDS011;18955;51.224;8.482;2022-12-13T07:33:35;7.43;;;2.58;;
32505;SDS011;18955;51.224;8.482;2022-12-13T07:36:03;9.20;;;3.10;;
32505;SDS011;18955;51.224;8.482;2022-12-13T07:38:32;8.95;;;3.40;;
32505;SDS011;18955;51.224;8.482;2022-12-13T07:40:59;6.10;;;2.67;;
32505;SDS011;18955;51.224;8.482;2022-12-13T07:43:25;8.43;;;2.83;;
32505;SDS011;18955;51.224;8.482;2022-12-13T07:45:51;5.70;;;2.55;;
32505;SDS011;18955;51.224;8.482;2022-12-13T07:48:18;11.38;;;2.70;;
32505;SDS011;18955;51.224;8.482;2022-12-13T07:50:44;5.38;;;2.45;;
32505;SDS011;18955;51.224;8.482;2022-12-13T07:53:11;8.60;;;2.70;;
32505;SDS011;18955;51.224;8.482;2022-12-13T07:55:37;9.98;;;2.58;;
32505;SDS011;18955;51.224;8.482;2022-12-13T07:58:05;9.95;;;2.08;;
32505;SDS011;18955;51.224;8.482;2022-12-13T08:00:36;8.45;;;2.70;;
32505;SDS011;18955;51.224;8.482;2022-12-13T08:03:03;6.43;;;2.78;;
32505;SDS011;18955;51.224;8.482;2022-12-13T08:07:56;7.20;;;1.75;;
32505;SDS011;18955;51.224;8.482;2022-12-13T08:10:24;4.93;;;2.65;;
32505;SDS011;18955;51.224;8.482;2022-12-13T08:12:51;5.90;;;2.80;;
32505;SDS011;18955;51.224;8.482;2022-12-13T08:15:17;4.93;;;2.38;;
32505;SDS011;18955;51.224;8.482;2022-12-13T08:17:44;8.70;;;2.28;;
32505;SDS011;18955;51.224;8.482;2022-12-13T08:20:10;7.20;;;2.42;;
32505;SDS011;18955;51.224;8.482;2022-12-13T08:22:36;9.93;;;2.60;;
32505;SDS011;18955;51.224;8.482;2022-12-13T08:25:03;6.90;;;2.60;;
32505;SDS011;18955;51.224;8.482;2022-12-13T08:27:31;5.72;;;2.47;;
32505;SDS011;18955;51.224;8.482;2022-12-13T08:29:57;9.32;;;2.80;;
32505;SDS011;18955;51.224;8.482;2022-12-13T08:32:23;4.35;;;2.50;;
32505;SDS011;18955;51.224;8.482;2022-12-13T08:34:50;6.00;;;2.60;;
32505;SDS011;18955;51.224;8.482;2022-12-13T08:37:16;7.30;;;2.95;;
32505;SDS011;18955;51.224;8.482;2022-12-13T08:39:43;4.38;;;2.22;;
32505;SDS011;18955;51.224;8.482;2022-12-13T08:42:10;8.80;;;2.60;;
32505;SDS011;18955;51.224;8.482;2022-12-13T08:44:38;5.43;;;1.98;;
32505;SDS011;18955;51.224;8.482;2022-12-13T08:47:05;5.75;;;2.78;;
32505;SDS011;18955;51.224;8.482;2022-12-13T08:49:31;2.42;;;1.52;;
32505;SDS011;18955;51.224;8.482;2022-12-13T08:51:57;5.47;;;2.38;;
32505;SDS011;18955;51.224;8.482;2022-12-13T08:54:24;6.05;;;2.50;;
32505;SDS011;18955;51.224;8.482;2022-12-13T08:56:50;5.68;;;2.25;;
32505;SDS011;18955;51.224;8.482;2022-12-13T08:59:16;6.90;;;2.33;;
32505;SDS011;18955;51.224;8.482;2022-12-13T09:01:43;4.78;;;1.75;;
32505;SDS011;18955;51.224;8.482;2022-12-13T09:04:09;5.32;;;2.30;;
32505;SDS011;18955;51.224;8.482;2022-12-13T09:06:36;6.10;;;2.30;;
32505;SDS011;18955;51.224;8.482;2022-12-13T09:09:02;7.03;;;2.90;;
32505;SDS011;18955;51.224;8.482;2022-12-13T09:11:28;8.02;;;2.55;;
32505;SDS011;18955;51.224;8.482;2022-12-13T09:13:55;2.80;;;1.63;;
32505;SDS011;18955;51.224;8.482;2022-12-13T09:16:21;10.27;;;1.38;;
32505;SDS011;18955;51.224;8.482;2022-12-13T09:18:48;8.25;;;2.63;;
32505;SDS011;18955;51.224;8.482;2022-12-13T09:21:15;7.20;;;2.45;;
32505;SDS011;18955;51.224;8.482;2022-12-13T09:26:09;4.57;;;2.17;;
32505;SDS011;18955;51.224;8.482;2022-12-13T09:28:38;4.80;;;2.15;;
32505;SDS011;18955;51.224;8.482;2022-12-13T09:31:12;4.97;;;2.30;;
32505;SDS011;18955;51.224;8.482;2022-12-13T09:33:40;5.22;;;2.28;;
32505;SDS011;18955;51.224;8.482;2022-12-13T09:36:07;2.45;;;1.80;;
32505;SDS011;18955;51.224;8.482;2022-12-13T09:38:37;4.30;;;1.90;;
32505;SDS011;18955;51.224;8.482;2022-12-13T09:43:32;4.88;;;2.00;;
32505;SDS011;18955;51.224;8.482;2022-12-13T09:46:00;3.90;;;1.95;;
32505;SDS011;18955;51.224;8.482;2022-12-13T09:48:31;7.80;;;2.53;;
32505;SDS011;18955;51.224;8.482;2022-12-13T09:50:58;6.40;;;2.33;;
32505;SDS011;18955;51.224;8.482;2022-12-13T09:53:24;4.75;;;2.40;;
32505;SDS011;18955;51.224;8.482;2022-12-13T09:55:50;5.32;;;2.25;;
32505;SDS011;18955;51.224;8.482;2022-12-13T10:00:47;5.63;;;2.13;;
32505;SDS011;18955;51.224;8.482;2022-12-13T10:03:17;4.28;;;2.20;;
32505;SDS011;18955;51.224;8.482;2022-12-13T10:05:58;6.65;;;2.58;;
32505;SDS011;18955;51.224;8.482;2022-12-13T10:08:35;4.63;;;2.25;;
32505;SDS011;18955;51.224;8.482;2022-12-13T10:11:05;4.38;;;1.83;;
32505;SDS011;18955;51.224;8.482;2022-12-13T10:16:01;7.18;;;1.95;;
32505;SDS011;18955;51.224;8.482;2022-12-13T10:18:35;3.58;;;1.80;;
32505;SDS011;18955;51.224;8.482;2022-12-13T10:21:04;4.80;;;2.00;;
32505;SDS011;18955;51.224;8.482;2022-12-13T10:23:35;4.95;;;1.95;;
32505;SDS011;18955;51.224;8.482;2022-12-13T10:26:01;4.05;;;2.08;;
32505;SDS011;18955;51.224;8.482;2022-12-13T10:28:34;12.00;;;2.38;;
32505;SDS011;18955;51.224;8.482;2022-12-13T10:31:01;5.03;;;1.73;;
32505;SDS011;18955;51.224;8.482;2022-12-13T10:33:31;3.55;;;1.77;;
32505;SDS011;18955;51.224;8.482;2022-12-13T10:38:36;3.42;;;1.75;;
32505;SDS011;18955;51.224;8.482;2022-12-13T10:41:28;5.00;;;1.95;;
32505;SDS011;18955;51.224;8.482;2022-12-13T10:46:36;3.95;;;1.73;;
32505;SDS011;18955;51.224;8.482;2022-12-13T10:49:21;5.20;;;1.92;;
32505;SDS011;18955;51.224;8.482;2022-12-13T10:51:49;5.88;;;2.58;;
32505;SDS011;18955;51.224;8.482;2022-12-13T10:54:35;2.63;;;1.60;;
32505;SDS011;18955;51.224;8.482;2022-12-13T10:57:03;2.95;;;1.52;;
32505;SDS011;18955;51.224;8.482;2022-12-13T11:01:55;3.47;;;1.55;;
32505;SDS011;18955;51.224;8.482;2022-12-13T11:06:52;2.03;;;1.73;;
32505;SDS011;18955;51.224;8.482;2022-12-13T11:09:26;3.03;;;1.70;;
32505;SDS011;18955;51.224;8.482;2022-12-13T11:11:59;3.65;;;1.58;;
32505;SDS011;18955;51.224;8.482;2022-12-13T11:14:30;4.47;;;1.67;;
32505;SDS011;18955;51.224;8.482;2022-12-13T11:17:04;3.53;;;2.00;;
32505;SDS011;18955;51.224;8.482;2022-12-13T11:19:39;2.97;;;1.40;;
32505;SDS011;18955;51.224;8.482;2022-12-13T11:22:18;4.18;;;1.55;;
32505;SDS011;18955;51.224;8.482;2022-12-13T11:25:07;3.35;;;1.55;;
32505;SDS011;18955;51.224;8.482;2022-12-13T11:27:48;3.47;;;1.70;;
32505;SDS011;18955;51.224;8.482;2022-12-13T11:30:49;3.67;;;1.40;;
32505;SDS011;18955;51.224;8.482;2022-12-13T11:33:23;3.60;;;1.65;;
32505;SDS011;18955;51.224;8.482;2022-12-13T11:41:14;2.83;;;1.33;;
32505;SDS011;18955;51.224;8.482;2022-12-13T11:43:55;2.08;;;1.08;;
32505;SDS011;18955;51.224;8.482;2022-12-13T11:46:33;3.08;;;1.40;;
32505;SDS011;18955;51.224;8.482;2022-12-13T11:49:12;3.67;;;0.98;;
32505;SDS011;18955;51.224;8.482;2022-12-13T11:51:47;1.65;;;1.05;;
32505;SDS011;18955;51.224;8.482;2022-12-13T11:54:31;2.50;;;1.30;;
32505;SDS011;18955;51.224;8.482;2022-12-13T11:57:04;3.33;;;1.30;;
32505;SDS011;18955;51.224;8.482;2022-12-13T11:59:44;3.00;;;1.60;;
32505;SDS011;18955;51.224;8.482;2022-12-13T12:02:34;1.80;;;1.20;;
32505;SDS011;18955;51.224;8.482;2022-12-13T12:05:29;1.60;;;1.02;;
32505;SDS011;18955;51.224;8.482;2022-12-13T12:07:59;1.27;;;0.88;;
32505;SDS011;18955;51.224;8.482;2022-12-13T12:10:46;3.38;;;1.23;;
32505;SDS011;18955;51.224;8.482;2022-12-13T12:13:24;4.18;;;1.27;;
32505;SDS011;18955;51.224;8.482;2022-12-13T12:18:52;4.40;;;1.40;;
32505;SDS011;18955;51.224;8.482;2022-12-13T12:24:44;2.60;;;1.30;;
32505;SDS011;18955;51.224;8.482;2022-12-13T12:27:09;2.25;;;1.23;;
32505;SDS011;18955;51.224;8.482;2022-12-13T12:32:48;2.45;;;1.38;;
32505;SDS011;18955;51.224;8.482;2022-12-13T12:35:25;2.40;;;1.38;;
32505;SDS011;18955;51.224;8.482;2022-12-13T12:43:30;2.70;;;1.35;;
32505;SDS011;18955;51.224;8.482;2022-12-13T12:57:16;2.90;;;1.77;;
32505;SDS011;18955;51.224;8.482;2022-12-13T13:05:07;4.18;;;1.60;;
32505;SDS011;18955;51.224;8.482;2022-12-13T13:07:41;3.05;;;1.77;;
32505;SDS011;18955;51.224;8.482;2022-12-13T13:10:13;3.75;;;2.10;;
32505;SDS011;18955;51.224;8.482;2022-12-13T13:12:40;4.25;;;1.92;;
32505;SDS011;18955;51.224;8.482;2022-12-13T13:17:55;3.80;;;1.83;;
32505;SDS011;18955;51.224;8.482;2022-12-13T13:22:56;3.47;;;1.77;;
32505;SDS011;18955;51.224;8.482;2022-12-13T13:25:29;5.53;;;1.67;;
32505;SDS011;18955;51.224;8.482;2022-12-13T13:39:15;6.85;;;1.83;;
32505;SDS011;18955;51.224;8.482;2022-12-13T13:47:13;4.45;;;2.20;;
32505;SDS011;18955;51.224;8.482;2022-12-13T14:24:02;3.75;;;2.10;;
32505;SDS011;18955;51.224;8.482;2022-12-13T14:27:14;4.55;;;2.05;;
32505;SDS011;18955;51.224;8.482;2022-12-13T14:29:43;3.10;;;1.92;;
32505;SDS011;18955;51.224;8.482;2022-12-13T14:32:19;6.53;;;2.63;;
32505;SDS011;18955;51.224;8.482;2022-12-13T14:34:47;8.35;;;2.70;;
32505;SDS011;18955;51.224;8.482;2022-12-13T14:39:51;5.55;;;2.40;;
32505;SDS011;18955;51.224;8.482;2022-12-13T14:50:16;5.25;;;2.22;;
32505;SDS011;18955;51.224;8.482;2022-12-13T14:57:52;3.40;;;2.13;;
32505;SDS011;18955;51.224;8.482;2022-12-13T15:00:28;4.57;;;2.60;;
32505;SDS011;18955;51.224;8.482;2022-12-13T15:02:58;6.80;;;2.53;;
32505;SDS011;18955;51.224;8.482;2022-12-13T15:05:36;6.65;;;2.72;;
32505;SDS011;18955;51.224;8.482;2022-12-13T15:08:07;6.82;;;2.90;;
32505;SDS011;18955;51.224;8.482;2022-12-13T15:13:05;4.75;;;2.13;;
32505;SDS011;18955;51.224;8.482;2022-12-13T15:15:38;7.10;;;2.20;;
32505;SDS011;18955;51.224;8.482;2022-12-13T15:20:54;4.80;;;2.10;;
32505;SDS011;18955;51.224;8.482;2022-12-13T15:23:26;5.90;;;2.65;;
32505;SDS011;18955;51.224;8.482;2022-12-13T15:26:32;3.47;;;1.88;;
32505;SDS011;18955;51.224;8.482;2022-12-13T15:28:59;6.50;;;2.67;;
32505;SDS011;18955;51.224;8.482;2022-12-13T15:31:30;5.78;;;1.85;;
32505;SDS011;18955;51.224;8.482;2022-12-13T15:36:48;4.35;;;2.30;;
32505;SDS011;18955;51.224;8.482;2022-12-13T15:39:15;7.55;;;2.47;;
32505;SDS011;18955;51.224;8.482;2022-12-13T15:41:45;4.93;;;2.58;;
32505;SDS011;18955;51.224;8.482;2022-12-13T15:44:25;5.18;;;2.08;;
32505;SDS011;18955;51.224;8.482;2022-12-13T15:46:57;5.13;;;2.03;;
32505;SDS011;18955;51.224;8.482;2022-12-13T15:49:33;6.90;;;2.67;;
32505;SDS011;18955;51.224;8.482;2022-12-13T15:52:04;5.15;;;2.10;;
32505;SDS011;18955;51.224;8.482;2022-12-13T15:54:39;4.53;;;2.53;;
32505;SDS011;18955;51.224;8.482;2022-12-13T15:57:23;4.82;;;2.22;;
32505;SDS011;18955;51.224;8.482;2022-12-13T16:00:03;5.53;;;2.13;;
32505;SDS011;18955;51.224;8.482;2022-12-13T16:02:45;3.72;;;1.83;;
32505;SDS011;18955;51.224;8.482;2022-12-13T16:05:19;4.60;;;1.88;;
32505;SDS011;18955;51.224;8.482;2022-12-13T16:07:51;6.18;;;2.45;;
32505;SDS011;18955;51.224;8.482;2022-12-13T16:10:18;5.85;;;2.03;;
32505;SDS011;18955;51.224;8.482;2022-12-13T16:12:47;3.25;;;1.52;;
32505;SDS011;18955;51.224;8.482;2022-12-13T16:17:50;3.10;;;1.80;;
32505;SDS011;18955;51.224;8.482;2022-12-13T16:20:17;2.35;;;1.60;;
32505;SDS011;18955;51.224;8.482;2022-12-13T16:22:45;4.05;;;1.88;;
32505;SDS011;18955;51.224;8.482;2022-12-13T16:25:13;8.02;;;2.67;;
32505;SDS011;18955;51.224;8.482;2022-12-13T16:27:42;7.13;;;2.03;;
32505;SDS011;18955;51.224;8.482;2022-12-13T16:32:38;4.63;;;1.92;;
32505;SDS011;18955;51.224;8.482;2022-12-13T16:35:05;4.22;;;1.75;;
32505;SDS011;18955;51.224;8.482;2022-12-13T16:37:31;4.63;;;1.92;;
32505;SDS011;18955;51.224;8.482;2022-12-13T16:39:57;3.15;;;1.55;;
32505;SDS011;18955;51.224;8.482;2022-12-13T16:42:26;4.07;;;1.77;;
32505;SDS011;18955;51.224;8.482;2022-12-13T16:44:53;4.95;;;1.67;;
32505;SDS011;18955;51.224;8.482;2022-12-13T16:47:21;5.38;;;1.90;;
32505;SDS011;18955;51.224;8.482;2022-12-13T16:49:47;2.42;;;1.00;;
32505;SDS011;18955;51.224;8.482;2022-12-13T16:52:15;4.07;;;1.83;;
32505;SDS011;18955;51.224;8.482;2022-12-13T16:54:44;4.25;;;2.10;;
32505;SDS011;18955;51.224;8.482;2022-12-13T16:57:10;1.20;;;0.93;;
32505;SDS011;18955;51.224;8.482;2022-12-13T16:59:36;3.30;;;1.60;;
32505;SDS011;18955;51.224;8.482;2022-12-13T17:02:02;2.83;;;1.40;;
32505;SDS011;18955;51.224;8.482;2022-12-13T17:04:29;3.80;;;1.92;;
32505;SDS011;18955;51.224;8.482;2022-12-13T17:06:55;1.88;;;0.95;;
32505;SDS011;18955;51.224;8.482;2022-12-13T17:09:21;3.03;;;1.77;;
32505;SDS011;18955;51.224;8.482;2022-12-13T17:11:49;3.58;;;1.50;;
32505;SDS011;18955;51.224;8.482;2022-12-13T17:14:15;6.30;;;1.83;;
32505;SDS011;18955;51.224;8.482;2022-12-13T17:16:41;2.13;;;1.40;;
32505;SDS011;18955;51.224;8.482;2022-12-13T17:19:09;2.13;;;1.30;;
32505;SDS011;18955;51.224;8.482;2022-12-13T17:21:36;4.85;;;2.13;;
32505;SDS011;18955;51.224;8.482;2022-12-13T17:24:02;7.75;;;1.85;;
32505;SDS011;18955;51.224;8.482;2022-12-13T17:26:29;4.68;;;1.85;;
32505;SDS011;18955;51.224;8.482;2022-12-13T17:28:55;3.42;;;1.73;;
32505;SDS011;18955;51.224;8.482;2022-12-13T17:31:21;3.67;;;1.75;;
32505;SDS011;18955;51.224;8.482;2022-12-13T17:33:48;1.92;;;1.05;;
32505;SDS011;18955;51.224;8.482;2022-12-13T17:36:14;1.33;;;0.95;;
32505;SDS011;18955;51.224;8.482;2022-12-13T17:38:42;1.90;;;1.23;;
32505;SDS011;18955;51.224;8.482;2022-12-13T17:41:10;3.53;;;1.65;;
32505;SDS011;18955;51.224;8.482;2022-12-13T17:43:37;3.92;;;1.48;;
32505;SDS011;18955;51.224;8.482;2022-12-13T17:46:08;6.63;;;1.70;;
32505;SDS011;18955;51.224;8.482;2022-12-13T17:48:39;5.07;;;1.75;;
32505;SDS011;18955;51.224;8.482;2022-12-13T17:51:07;4.03;;;1.92;;
32505;SDS011;18955;51.224;8.482;2022-12-13T17:53:35;1.90;;;1.38;;
32505;SDS011;18955;51.224;8.482;2022-12-13T17:56:04;3.40;;;1.48;;
32505;SDS011;18955;51.224;8.482;2022-12-13T17:58:32;1.77;;;1.33;;
32505;SDS011;18955;51.224;8.482;2022-12-13T18:01:01;2.13;;;1.25;;